createdAt,value
2022-10-13T00:00:13.687Z,29.50
2022-10-13T00:02:40.218Z,30.30
2022-10-13T00:05:06.977Z,28.00
2022-10-13T00:07:33.592Z,29.58
2022-10-13T00:10:00.181Z,31.95
2022-10-13T00:12:26.715Z,29.20
2022-10-13T00:14:53.518Z,30.63
2022-10-13T00:17:20.069Z,28.10
2022-10-13T00:19:46.660Z,29.87
2022-10-13T00:22:13.207Z,22.77
2022-10-13T00:24:39.770Z,24.97
2022-10-13T00:27:06.330Z,28.30
2022-10-13T00:29:32.861Z,29.55
2022-10-13T00:31:59.406Z,25.47
2022-10-13T00:34:25.981Z,27.53
2022-10-13T00:36:52.497Z,23.60
2022-10-13T00:39:19.048Z,25.87
2022-10-13T00:41:45.557Z,24.87
2022-10-13T00:44:50.577Z,24.87
2022-10-13T00:47:17.149Z,26.95
2022-10-13T00:49:44.164Z,24.60
2022-10-13T00:52:11.663Z,26.70
2022-10-13T00:54:38.263Z,26.55
2022-10-13T00:57:06.241Z,26.70
2022-10-13T00:59:32.846Z,24.08
2022-10-13T01:02:00.250Z,27.17
2022-10-13T01:06:56.722Z,25.63
2022-10-13T01:09:23.384Z,28.42
2022-10-13T01:11:49.830Z,28.55
2022-10-13T01:14:25.584Z,28.93
2022-10-13T01:17:26.055Z,26.52
2022-10-13T01:20:23.822Z,27.60
2022-10-13T01:22:56.753Z,30.17
2022-10-13T01:25:52.754Z,29.80
2022-10-13T01:36:31.117Z,30.48
2022-10-13T01:39:23.518Z,29.63
2022-10-13T01:41:54.035Z,27.88
2022-10-13T01:44:26.378Z,28.50
2022-10-13T01:46:54.634Z,28.25
2022-10-13T01:49:27.152Z,25.90
2022-10-13T01:51:56.968Z,28.13
2022-10-13T01:54:23.500Z,28.88
2022-10-13T01:56:54.374Z,24.87
2022-10-13T01:59:21.481Z,31.95
2022-10-13T02:01:56.810Z,28.13
2022-10-13T02:04:41.759Z,30.83
2022-10-13T02:07:17.233Z,27.85
2022-10-13T02:09:52.951Z,28.33
2022-10-13T02:12:43.526Z,27.67
2022-10-13T02:15:16.192Z,26.88
2022-10-13T02:17:42.866Z,28.33
2022-10-13T02:20:11.036Z,28.38
2022-10-13T02:22:43.738Z,29.58
2022-10-13T02:25:10.374Z,26.17
2022-10-13T02:27:37.036Z,32.08
2022-10-13T02:30:05.202Z,25.73
2022-10-13T02:32:32.046Z,28.65
2022-10-13T02:34:58.626Z,28.15
2022-10-13T02:37:25.872Z,28.58
2022-10-13T02:39:52.937Z,29.70
2022-10-13T02:42:19.902Z,28.98
2022-10-13T02:44:46.566Z,30.65
2022-10-13T02:47:13.372Z,29.67
2022-10-13T02:49:39.970Z,31.17
2022-10-13T02:52:06.569Z,29.60
2022-10-13T02:54:33.102Z,26.87
2022-10-13T02:56:59.606Z,30.17
2022-10-13T02:59:26.177Z,32.23
2022-10-13T03:01:52.701Z,29.77
2022-10-13T03:04:19.269Z,31.07
2022-10-13T03:06:45.834Z,28.30
2022-10-13T03:09:12.380Z,27.00
2022-10-13T03:11:38.968Z,28.10
2022-10-13T03:14:05.604Z,30.63
2022-10-13T03:16:32.245Z,31.23
2022-10-13T03:18:58.757Z,26.67
2022-10-13T03:21:25.704Z,27.60
2022-10-13T03:23:52.287Z,29.02
2022-10-13T03:26:18.941Z,24.60
2022-10-13T03:28:51.800Z,28.42
2022-10-13T03:31:19.029Z,33.13
2022-10-13T03:33:45.883Z,32.17
2022-10-13T03:36:16.296Z,30.15
2022-10-13T03:38:43.251Z,28.13
2022-10-13T03:41:13.769Z,28.75
2022-10-13T03:43:42.128Z,29.27
2022-10-13T03:46:10.772Z,28.30
2022-10-13T03:48:38.132Z,32.40
2022-10-13T03:53:42.410Z,34.50
2022-10-13T03:56:14.394Z,25.97
2022-10-13T03:58:41.027Z,30.70
2022-10-13T04:01:07.596Z,33.25
2022-10-13T04:03:34.674Z,24.73
2022-10-13T04:06:02.764Z,26.80
2022-10-13T04:08:30.393Z,24.98
2022-10-13T04:11:06.047Z,31.50
2022-10-13T04:13:33.402Z,27.98
2022-10-13T04:18:30.233Z,28.23
2022-10-13T04:20:56.838Z,28.33
2022-10-13T04:23:23.515Z,26.00
2022-10-13T04:25:50.523Z,30.55
2022-10-13T04:28:17.145Z,26.55
2022-10-13T04:30:49.091Z,28.90
2022-10-13T04:33:16.011Z,26.88
2022-10-13T04:35:42.686Z,25.97
2022-10-13T04:38:09.221Z,29.80
2022-10-13T04:40:36.085Z,28.13
2022-10-13T04:43:02.674Z,25.63
2022-10-13T04:45:29.209Z,28.47
2022-10-13T04:47:55.830Z,28.10
2022-10-13T04:50:22.435Z,28.70
2022-10-13T04:52:49.552Z,28.27
2022-10-13T04:55:16.150Z,25.38
2022-10-13T04:57:42.683Z,28.10
2022-10-13T05:00:10.451Z,29.23
2022-10-13T05:02:37.762Z,28.98
2022-10-13T05:05:05.047Z,32.83
2022-10-13T05:07:32.106Z,27.98
2022-10-13T05:09:58.788Z,30.50
2022-10-13T05:12:25.485Z,26.65
2022-10-13T05:14:52.084Z,27.08
2022-10-13T05:17:18.619Z,26.98
2022-10-13T05:19:45.155Z,27.43
2022-10-13T05:22:11.730Z,31.97
2022-10-13T05:24:38.562Z,31.90
2022-10-13T05:27:14.272Z,28.00
2022-10-13T05:29:41.285Z,26.58
2022-10-13T05:32:08.542Z,23.70
2022-10-13T05:34:35.168Z,24.50
2022-10-13T05:37:02.030Z,25.20
2022-10-13T05:39:28.825Z,29.58
2022-10-13T05:41:55.391Z,26.15
2022-10-13T05:44:22.013Z,26.83
2022-10-13T05:46:48.631Z,25.40
2022-10-13T05:49:15.787Z,25.70
2022-10-13T05:51:46.777Z,25.88
2022-10-13T05:54:13.241Z,25.20
2022-10-13T05:56:48.193Z,30.38
2022-10-13T05:59:23.322Z,26.73
2022-10-13T06:01:53.341Z,27.52
2022-10-13T06:04:30.264Z,27.27
2022-10-13T06:06:56.931Z,26.80
2022-10-13T06:09:23.564Z,28.52
2022-10-13T06:11:50.095Z,27.63
2022-10-13T06:14:16.673Z,28.07
2022-10-13T06:16:43.191Z,25.58
2022-10-13T06:19:09.834Z,29.37
2022-10-13T06:21:36.350Z,28.60
2022-10-13T06:24:03.333Z,27.37
2022-10-13T06:26:30.111Z,26.02
2022-10-13T06:28:59.599Z,27.23
2022-10-13T06:31:26.704Z,23.63
2022-10-13T06:33:53.586Z,28.05
2022-10-13T06:36:20.360Z,23.45
2022-10-13T06:38:47.159Z,21.35
2022-10-13T06:41:14.364Z,25.17
2022-10-13T06:43:41.375Z,22.27
2022-10-13T06:46:08.611Z,22.98
2022-10-13T06:48:35.371Z,22.33
2022-10-13T06:51:03.794Z,21.98
2022-10-13T06:53:30.315Z,20.08
2022-10-13T06:55:58.709Z,24.37
2022-10-13T06:58:25.502Z,19.80
2022-10-13T07:00:52.280Z,23.50
2022-10-13T07:03:19.109Z,22.30
2022-10-13T07:05:45.806Z,21.63
2022-10-13T07:08:13.258Z,24.20
2022-10-13T07:13:06.718Z,22.05
2022-10-13T07:15:33.710Z,22.40
2022-10-13T07:18:00.215Z,19.50
2022-10-13T07:20:26.801Z,23.60
2022-10-13T07:22:54.184Z,21.83
2022-10-13T07:27:47.486Z,22.77
2022-10-13T07:30:14.111Z,21.77
2022-10-13T07:32:42.206Z,25.17
2022-10-13T07:35:10.470Z,24.05
2022-10-13T07:37:38.040Z,26.45
2022-10-13T07:40:05.986Z,27.58
2022-10-13T07:42:33.079Z,24.50
2022-10-13T07:44:59.733Z,19.05
2022-10-13T07:47:26.325Z,32.35
2022-10-13T07:49:54.765Z,25.52
2022-10-13T07:52:22.389Z,31.98
2022-10-13T07:54:50.416Z,27.75
2022-10-13T07:57:17.111Z,25.73
2022-10-13T07:59:43.890Z,27.83
2022-10-13T08:02:10.689Z,24.60
2022-10-13T08:04:37.366Z,20.55
2022-10-13T08:07:05.936Z,17.92
2022-10-13T08:09:33.316Z,18.45
2022-10-13T08:12:00.898Z,20.08
2022-10-13T08:14:29.535Z,18.48
2022-10-13T08:16:57.112Z,24.90
2022-10-13T08:19:26.331Z,28.70
2022-10-13T08:21:58.206Z,22.27
2022-10-13T08:24:26.919Z,25.85
2022-10-13T08:26:53.552Z,25.42
2022-10-13T08:29:22.056Z,28.83
2022-10-13T08:34:22.775Z,19.45
2022-10-13T08:36:53.046Z,19.75
2022-10-13T08:39:20.991Z,18.13
2022-10-13T08:41:48.205Z,19.42
2022-10-13T08:47:12.355Z,27.85
2022-10-13T08:49:41.152Z,25.65
2022-10-13T08:52:16.505Z,22.73
2022-10-13T08:54:43.175Z,21.55
2022-10-13T08:57:11.083Z,20.20
2022-10-13T08:59:37.717Z,24.15
2022-10-13T09:02:21.664Z,24.75
2022-10-13T09:04:50.935Z,23.00
2022-10-13T09:07:31.580Z,21.30
2022-10-13T09:09:58.242Z,22.35
2022-10-13T09:12:25.956Z,22.92
2022-10-13T09:15:09.817Z,22.88
2022-10-13T09:17:38.330Z,18.55
2022-10-13T09:20:04.912Z,23.27
2022-10-13T09:22:40.060Z,20.33
2022-10-13T09:25:06.567Z,23.13
2022-10-13T09:27:52.314Z,19.90
2022-10-13T09:30:30.867Z,23.70
2022-10-13T09:33:09.294Z,19.27
2022-10-13T09:35:36.828Z,26.85
2022-10-13T09:38:29.703Z,18.38
2022-10-13T09:41:06.148Z,16.48
2022-10-13T09:43:42.503Z,20.38
2022-10-13T09:46:37.978Z,16.17
2022-10-13T09:49:20.787Z,17.77
2022-10-13T09:51:48.494Z,16.38
2022-10-13T09:54:33.664Z,20.08
2022-10-13T09:57:05.705Z,16.58
2022-10-13T09:59:41.021Z,18.65
2022-10-13T10:02:25.115Z,15.82
2022-10-13T10:04:55.111Z,17.50
2022-10-13T10:07:28.981Z,17.30
2022-10-13T10:10:01.741Z,20.38
2022-10-13T10:12:31.867Z,18.40
2022-10-13T10:14:58.547Z,18.50
2022-10-13T10:17:43.628Z,19.50
2022-10-13T10:20:17.406Z,20.40
2022-10-13T10:22:52.833Z,15.25
2022-10-13T10:25:34.446Z,18.67
2022-10-13T10:28:19.230Z,18.42
2022-10-13T10:30:57.811Z,18.55
2022-10-13T10:34:04.157Z,24.17
2022-10-13T10:36:54.137Z,22.63
2022-10-13T10:39:38.486Z,27.40
2022-10-13T10:42:51.231Z,22.73
2022-10-13T10:45:33.782Z,18.83
2022-10-13T10:48:12.833Z,21.85
2022-10-13T10:50:40.089Z,17.00
2022-10-13T10:53:14.978Z,22.65
2022-10-13T10:55:54.397Z,26.00
2022-10-13T10:58:38.577Z,21.63
2022-10-13T11:01:20.084Z,25.10
2022-10-13T11:03:54.151Z,24.50
2022-10-13T11:06:20.652Z,28.40
2022-10-13T11:08:49.183Z,21.77
2022-10-13T11:11:37.443Z,22.83
2022-10-13T11:14:07.263Z,27.02
2022-10-13T11:16:39.638Z,18.80
2022-10-13T11:19:32.140Z,20.40
2022-10-13T11:21:58.714Z,23.70
2022-10-13T11:24:38.730Z,20.38
2022-10-13T11:27:08.295Z,25.45
2022-10-13T11:29:46.774Z,21.27
2022-10-13T11:32:31.194Z,25.17
2022-10-13T11:35:00.737Z,22.17
2022-10-13T11:38:06.083Z,23.02
2022-10-13T11:40:53.897Z,21.80
2022-10-13T11:44:09.128Z,18.77
2022-10-13T11:47:00.180Z,22.48
2022-10-13T11:50:01.548Z,19.48
2022-10-13T11:52:49.972Z,25.90
2022-10-13T11:55:41.691Z,18.38
2022-10-13T11:58:24.375Z,15.80
2022-10-13T12:01:09.082Z,19.25
2022-10-13T12:03:42.351Z,22.25
2022-10-13T12:06:17.493Z,21.05
2022-10-13T12:08:49.879Z,25.42
2022-10-13T12:11:38.161Z,20.55
2022-10-13T12:14:08.614Z,20.05
2022-10-13T12:16:35.223Z,18.40
2022-10-13T12:19:29.772Z,18.55
2022-10-13T12:21:59.585Z,20.33
2022-10-13T12:24:30.596Z,25.65
2022-10-13T12:26:58.435Z,16.05
2022-10-13T12:29:31.047Z,22.25
2022-10-13T12:32:00.104Z,21.20
2022-10-13T12:34:28.245Z,20.48
2022-10-13T12:36:59.590Z,19.80
2022-10-13T12:39:28.284Z,20.83
2022-10-13T12:41:55.954Z,21.00
2022-10-13T12:44:28.553Z,21.00
2022-10-13T12:46:58.942Z,21.00
2022-10-13T12:49:29.526Z,21.17
2022-10-13T12:52:05.141Z,19.23
2022-10-13T12:54:38.202Z,22.73
2022-10-13T12:57:18.740Z,20.52
2022-10-13T12:59:45.630Z,22.98
2022-10-13T13:02:28.446Z,21.80
2022-10-13T13:04:55.460Z,34.80
2022-10-13T13:07:28.794Z,22.60
2022-10-13T13:10:17.758Z,20.90
2022-10-13T13:12:45.406Z,22.50
2022-10-13T13:15:27.307Z,25.83
2022-10-13T13:17:59.244Z,20.35
2022-10-13T13:20:30.080Z,26.73
2022-10-13T13:22:57.234Z,24.13
2022-10-13T13:25:24.460Z,26.45
2022-10-13T13:27:51.992Z,21.17
2022-10-13T13:30:21.649Z,28.08
2022-10-13T13:32:48.393Z,26.42
2022-10-13T13:35:15.138Z,19.63
2022-10-13T13:37:45.828Z,25.20
2022-10-13T13:40:18.078Z,26.88
2022-10-13T13:42:44.706Z,28.88
2022-10-13T13:45:15.737Z,27.17
2022-10-13T13:47:42.772Z,25.60
2022-10-13T13:50:23.327Z,23.23
2022-10-13T13:52:49.981Z,28.27
2022-10-13T13:55:16.698Z,29.42
2022-10-13T13:57:44.273Z,23.27
2022-10-13T14:00:12.962Z,30.65
2022-10-13T14:02:40.218Z,24.45
2022-10-13T14:05:07.684Z,27.70
2022-10-13T14:07:34.454Z,23.38
2022-10-13T14:10:02.308Z,27.27
2022-10-13T14:12:33.322Z,30.88
2022-10-13T14:15:00.339Z,27.80
2022-10-13T14:17:28.053Z,27.92
2022-10-13T14:19:54.970Z,27.00
2022-10-13T14:22:22.603Z,32.03
2022-10-13T14:24:49.597Z,25.10
2022-10-13T14:27:16.203Z,26.23
2022-10-13T14:29:42.905Z,24.58
2022-10-13T14:32:09.539Z,26.15
2022-10-13T14:34:36.165Z,25.10
2022-10-13T14:37:02.742Z,25.55
2022-10-13T14:39:29.364Z,27.60
2022-10-13T14:41:56.079Z,24.75
2022-10-13T14:44:22.672Z,26.08
2022-10-13T14:46:49.200Z,23.67
2022-10-13T14:49:15.739Z,26.47
2022-10-13T14:51:43.307Z,29.15
2022-10-13T14:54:10.024Z,32.10
2022-10-13T14:56:36.899Z,25.15
2022-10-13T14:59:05.417Z,27.88
2022-10-13T15:01:33.487Z,30.75
2022-10-13T15:04:03.260Z,31.85
2022-10-13T15:06:30.204Z,33.20
2022-10-13T15:08:56.935Z,30.95
2022-10-13T15:11:25.202Z,31.08
2022-10-13T15:13:52.372Z,30.35
2022-10-13T15:16:28.242Z,29.73
2022-10-13T15:18:55.488Z,28.30
2022-10-13T15:21:22.833Z,29.65
2022-10-13T15:26:17.985Z,32.00
2022-10-13T15:28:47.211Z,32.40
2022-10-13T15:31:15.657Z,31.63
2022-10-13T15:33:43.986Z,27.17
2022-10-13T15:36:10.582Z,35.53
2022-10-13T15:38:37.152Z,28.83
2022-10-13T15:41:05.709Z,28.17
2022-10-13T15:43:32.652Z,32.70
2022-10-13T15:46:20.910Z,30.73
2022-10-13T15:48:48.721Z,38.10
2022-10-13T15:51:17.832Z,32.30
2022-10-13T15:53:44.503Z,35.25
2022-10-13T15:56:11.160Z,34.95
2022-10-13T15:58:38.065Z,34.78
2022-10-13T16:01:12.333Z,36.58
2022-10-13T16:03:39.078Z,34.58
2022-10-13T16:06:08.292Z,36.63
2022-10-13T16:08:43.984Z,42.00
2022-10-13T16:11:16.445Z,36.58
2022-10-13T16:13:51.731Z,33.72
2022-10-13T16:16:19.254Z,37.83
2022-10-13T16:18:46.153Z,35.65
2022-10-13T16:21:19.191Z,41.67
2022-10-13T16:23:46.860Z,40.97
2022-10-13T16:26:14.142Z,38.42
2022-10-13T16:28:40.923Z,38.88
2022-10-13T16:31:14.008Z,40.85
2022-10-13T16:33:41.665Z,48.80
2022-10-13T16:36:11.475Z,46.35
2022-10-13T16:38:38.078Z,41.33
2022-10-13T16:41:06.518Z,42.17
2022-10-13T16:43:33.717Z,43.65
2022-10-13T16:46:02.870Z,40.38
2022-10-13T16:48:32.890Z,38.38
2022-10-13T16:51:00.816Z,35.58
2022-10-13T16:53:27.340Z,39.13
2022-10-13T17:08:14.641Z,38.60
2022-10-13T17:10:41.153Z,41.22
2022-10-13T17:13:07.763Z,35.40
2022-10-13T17:15:34.348Z,38.33
2022-10-13T17:18:00.895Z,34.20
2022-10-13T17:20:27.589Z,33.13
2022-10-13T17:22:54.704Z,33.67
2022-10-13T17:25:21.236Z,35.17
2022-10-13T17:27:48.001Z,38.13
2022-10-13T17:30:14.633Z,34.00
2022-10-13T17:32:41.273Z,37.97
2022-10-13T17:35:11.366Z,40.95
2022-10-13T17:37:38.048Z,38.67
2022-10-13T17:40:05.130Z,35.75
2022-10-13T17:42:31.799Z,39.70
2022-10-13T17:44:58.361Z,34.67
2022-10-13T17:47:24.919Z,32.10
2022-10-13T17:49:51.692Z,36.43
2022-10-13T17:52:18.385Z,32.45
2022-10-13T17:54:45.240Z,34.07
2022-10-13T17:57:11.745Z,33.53
2022-10-13T17:59:38.320Z,37.70
2022-10-13T18:02:04.984Z,33.57
2022-10-13T18:04:31.629Z,35.03
2022-10-13T18:06:58.296Z,34.45
2022-10-13T18:09:24.872Z,36.20
2022-10-13T18:11:53.418Z,33.60
2022-10-13T18:14:21.798Z,36.13
2022-10-13T18:16:51.863Z,42.08
2022-10-13T18:19:21.419Z,45.80
2022-10-13T18:21:48.384Z,35.72
2022-10-13T18:24:15.053Z,35.40
2022-10-13T18:26:41.695Z,34.63
2022-10-13T18:29:09.214Z,34.03
2022-10-13T18:31:39.665Z,31.95
2022-10-13T18:34:08.716Z,31.67
2022-10-13T18:36:37.923Z,30.27
2022-10-13T18:39:13.248Z,37.38
2022-10-13T18:41:40.102Z,37.00
2022-10-13T18:44:07.448Z,33.90
2022-10-13T18:49:00.863Z,35.95
2022-10-13T18:51:33.399Z,35.88
2022-10-13T18:54:02.600Z,30.90
2022-10-13T18:56:31.030Z,32.05
2022-10-13T18:59:00.214Z,33.58
2022-10-13T19:01:29.191Z,46.03
2022-10-13T19:03:56.285Z,42.03
2022-10-13T19:06:27.925Z,37.50
2022-10-13T19:09:10.813Z,33.60
2022-10-13T19:11:37.788Z,33.80
2022-10-13T19:14:06.975Z,32.28
2022-10-13T19:16:36.789Z,37.17
2022-10-13T19:19:03.759Z,35.08
2022-10-13T19:21:30.383Z,37.13
2022-10-13T19:23:59.370Z,32.25
2022-10-13T19:26:29.847Z,30.77
2022-10-13T19:29:05.681Z,32.22
2022-10-13T19:31:34.104Z,31.73
2022-10-13T19:34:01.421Z,39.20
2022-10-13T19:36:37.653Z,35.83
2022-10-13T19:39:14.775Z,31.03
2022-10-13T19:41:41.465Z,33.95
2022-10-13T19:44:08.064Z,33.92
2022-10-13T19:46:35.487Z,31.35
2022-10-13T19:51:28.821Z,34.38
2022-10-13T19:53:55.498Z,33.13
2022-10-13T19:56:27.793Z,34.53
2022-10-13T19:58:54.945Z,39.30
2022-10-13T20:01:22.066Z,35.10
2022-10-13T20:03:48.955Z,36.47
2022-10-13T20:06:16.608Z,37.33
2022-10-13T20:08:44.999Z,32.05
2022-10-13T20:11:23.446Z,38.92
2022-10-13T20:13:51.919Z,37.80
2022-10-13T20:16:21.503Z,37.05
2022-10-13T20:18:56.264Z,31.77
2022-10-13T20:21:23.681Z,36.08
2022-10-13T20:28:46.103Z,30.38
2022-10-13T20:31:14.416Z,34.53
2022-10-13T20:33:41.251Z,31.92
2022-10-13T20:36:14.121Z,34.78
2022-10-13T20:38:41.244Z,34.97
2022-10-13T20:41:30.014Z,31.92
2022-10-13T20:43:59.341Z,33.13
2022-10-13T20:46:26.355Z,35.05
2022-10-13T20:49:11.457Z,32.28
2022-10-13T20:51:39.214Z,34.92
2022-10-13T20:54:06.202Z,34.97
2022-10-13T20:56:33.301Z,30.92
2022-10-13T20:59:05.152Z,31.52
2022-10-13T21:01:31.804Z,32.67
2022-10-13T21:03:58.520Z,30.70
2022-10-13T21:06:26.303Z,35.97
2022-10-13T21:08:53.151Z,36.08
2022-10-13T21:11:21.796Z,35.13
2022-10-13T21:13:48.829Z,34.78
2022-10-13T21:16:22.149Z,39.20
2022-10-13T21:18:50.533Z,37.75
2022-10-13T21:21:22.445Z,37.90
2022-10-13T21:23:53.023Z,38.60
2022-10-13T21:26:22.109Z,34.72
2022-10-13T21:28:49.961Z,35.17
2022-10-13T21:31:18.200Z,34.35
2022-10-13T21:33:45.182Z,36.90
2022-10-13T21:36:18.081Z,34.67
2022-10-13T21:38:46.492Z,36.45
2022-10-13T21:41:14.697Z,36.38
2022-10-13T21:43:41.621Z,36.85
2022-10-13T21:46:11.495Z,35.80
2022-10-13T21:48:38.358Z,36.97
2022-10-13T21:51:13.978Z,33.60
2022-10-13T21:53:40.771Z,33.13
2022-10-13T21:56:09.305Z,34.05
2022-10-13T21:58:36.070Z,36.60
2022-10-13T22:01:03.989Z,35.03
2022-10-13T22:03:30.762Z,39.33
2022-10-13T22:05:57.283Z,40.90
2022-10-13T22:08:37.519Z,40.93
2022-10-13T22:11:06.628Z,40.92
2022-10-13T22:13:33.529Z,41.05
2022-10-13T22:16:09.345Z,43.95
2022-10-13T22:18:35.979Z,43.78
2022-10-13T23:21:52.099Z,36.70
2022-10-13T23:24:18.606Z,40.08
2022-10-13T23:26:46.176Z,34.53
2022-10-13T23:29:12.980Z,39.97
2022-10-13T23:31:40.017Z,35.30
2022-10-13T23:34:06.588Z,36.92
2022-10-13T23:36:33.480Z,41.20
2022-10-13T23:39:02.842Z,43.53
2022-10-13T23:41:29.807Z,35.88
2022-10-13T23:43:56.785Z,36.53
2022-10-13T23:46:23.452Z,41.25
2022-10-13T23:48:50.255Z,39.08
2022-10-13T23:51:19.492Z,38.10
2022-10-13T23:53:46.508Z,36.85
2022-10-13T23:56:13.525Z,38.70
2022-10-13T23:58:41.889Z,36.70
